• Join FlightAware (Why Join?)
  • Login
  • US Flag 
08:44PM EDT


 

Airport Tracker/Info


-or-


 

Live Flight TrackerFlight Track Log ✈ JST952 ✈ 10-Apr-2013 ✈ YSSY / SYD - YBCS / CNS

Flight Track Log - Related Links

Times and Time Zones

All times are in EDT time to prevent confusion due to time zone crossing. See the JST952 flight status page for this flight to view local times or setup timezone preferences in your user account.

Time Position Orientation Groundspeed Altitude Reporting Facility
EDT Latitude Longitude Course Direction KTS MPH feet Rate Location/Type
04:11PM -33.8727 151.1279 312° West 222 255 3,200  Level Aus ATC (RADAR)
04:12PM -33.8192 151.0574 312° West 292 336 4,600 1,020 Climbing Aus ATC (RADAR)
04:12PM -33.8180 151.0560 312° West 324 373 4,400 2,100 Descending FlightAware
04:12PM -33.7940 151.0250 313° West 329 379 5,600 3,480 Climbing FlightAware
04:13PM -33.7570 150.9780 313° West 329 379 7,600 3,840 Climbing FlightAware
04:13PM -33.7372 150.9527 313° West 322 371 8,800 2,880 Climbing Aus ATC (RADAR)
04:13PM -33.7310 150.9450 313° West 332 382 8,800 1,680 Level FlightAware
04:13PM -33.7150 150.9240 312° West 334 384 9,500 3,120 Climbing FlightAware
04:14PM -33.6692 150.8668 312° West 335 386 11,500 2,520 Climbing Aus ATC (RADAR)
04:14PM -33.6700 150.8680 312° West 353 406 11,200 1,800 Descending FlightAware
04:15PM -33.6180 150.8030 314° West 369 425 13,000 2,940 Climbing FlightAware
04:15PM -33.5911 150.7749 314° West 358 412 14,200 2,400 Climbing Aus ATC (RADAR)
04:15PM -33.5760 150.7690 314° West 370 426 14,200 1,740 Level FlightAware
04:16PM -33.5090 150.7500 347° North 377 434 15,800 2,280 Climbing FlightAware
04:17PM -33.4330 150.7270 346° North 398 458 17,300 2,400 Climbing FlightAware
04:17PM -33.3627 150.7068 346° North 392 451 18,900 1,920 Climbing Aus ATC (RADAR)
04:17PM -33.3610 150.7060 346° North 408 470 18,600 1,560 Descending FlightAware
04:18PM -33.2750 150.6800 346° North 414 476 20,200 1,920 Climbing FlightAware
04:19PM -33.2050 150.6590 346° North 421 484 21,400 2,040 Climbing FlightAware
04:19PM -33.1191 150.6342 346° North 414 476 23,000 1,860 Climbing Aus ATC (RADAR)
04:19PM -33.1140 150.6320 346° North 428 493 22,800 1,080 Descending FlightAware
04:20PM -33.0370 150.6100 347° North 434 499 23,800 1,920 Climbing FlightAware
04:20PM -32.9963 150.5980 347° North 434 499 24,700 1,320 Climbing Aus ATC (RADAR)
04:21PM -32.9590 150.5870 347° North 443 510 24,700 960 Level FlightAware
04:21PM -32.8700 150.5600 346° North 448 516 25,800 1,800 Climbing FlightAware
04:22PM -32.8161 150.5448 346° North 446 513 26,800 1,500 Climbing Aus ATC (RADAR)
04:22PM -32.7870 150.5360 346° North 450 518 26,800 660 Level FlightAware
04:23PM -32.6940 150.5090 346° North 461 531 27,500 1,140 Climbing FlightAware
04:23PM -32.6468 150.4949 346° North 453 521 28,100 900 Climbing Aus ATC (RADAR)
04:24PM -32.6110 150.4840 346° North 470 541 28,100 660 Level FlightAware
04:24PM -32.5370 150.4630 346° North 476 548 28,700 1,380 Climbing FlightAware
04:24PM -32.5090 150.4548 346° North 463 533 29,200 720 Climbing Aus ATC (RADAR)
04:25PM -32.4280 150.4310 346° North 487 560 29,300 780 Climbing FlightAware
04:25PM -32.3783 150.4162 346° North 474 545 30,000 1,020 Climbing Aus ATC (RADAR)
04:26PM -32.3410 150.4050 346° North 490 564 30,000 900 Level FlightAware
04:26PM -32.2346 150.3758 346° North 481 554 31,000 840 Climbing Aus ATC (RADAR)
04:27PM -32.2220 150.3710 346° North 495 570 30,800 540 Descending FlightAware
04:27PM -32.1240 150.3430 346° North 497 572 31,500 960 Climbing FlightAware
04:28PM -32.0340 150.3160 346° North 498 573 32,200 1,200 Climbing FlightAware
04:29PM -31.9439 150.2911 346° North 491 565 33,000 900 Climbing Aus ATC (RADAR)
04:29PM -31.9350 150.2880 346° North 497 572 32,900 1,080 Descending FlightAware
04:29PM -31.8500 150.2640 347° North 488 562 33,900 1,800 Climbing FlightAware
04:30PM -31.8008 150.2506 347° North 476 548 34,600 1,200 Climbing Aus ATC (RADAR)
04:30PM -31.7760 150.2420 347° North 482 555 34,600 600 Level FlightAware
04:31PM -31.6610 150.2090 346° North 479 551 35,300 1,080 Climbing FlightAware
04:31PM -31.6175 150.1976 346° North 471 542 35,800 480 Climbing Aus ATC (RADAR)
04:32PM -31.5650 150.1820 346° North 478 550 35,700 360 Descending FlightAware
04:32PM -31.5193 150.1698 346° North 478 550 36,100 300 Climbing Aus ATC (RADAR)
04:32PM -31.4780 150.1570 346° North 482 555 35,900 -120 Descending FlightAware
04:33PM -31.3770 150.1280 346° North 479 551 36,000 60 Climbing FlightAware
04:34PM -31.2720 150.0980 346° North 478 550 36,000 180 Level FlightAware
04:34PM -31.1806 150.0728 346° North 478 550 36,300  Climbing Aus ATC (RADAR)
04:34PM -31.1910 150.0750 346° North 482 555 36,000 -360 Descending FlightAware
04:35PM -31.0820 150.0450 347° North 480 552 36,000 240 Level FlightAware
04:35PM -31.0401 150.0335 347° North 474 545 36,300  Climbing Aus ATC (RADAR)
04:36PM -30.9990 150.0210 347° North 479 551 36,000  Descending FlightAware
04:37PM -30.9046 149.9949 347° North 479 551 36,300  Climbing Aus ATC (RADAR)
04:37PM -30.9030 149.9940 347° North 477 549 36,000 -360 Descending FlightAware
04:37PM -30.8100 149.9680 346° North 478 550 36,000  Level FlightAware
04:38PM -30.7440 149.9490 346° North 479 551 36,000 240 Level FlightAware
04:38PM -30.6528 149.9248 346° North 472 543 36,300  Climbing Aus ATC (RADAR)
04:39PM -30.6380 149.9190 346° North 479 551 36,000 -300 Descending FlightAware
04:39PM -30.5650 149.8980 346° North 479 551 36,000  Level FlightAware
04:40PM -30.4920 149.8760 345° North 479 551 36,000 240 Level FlightAware
04:41PM -30.3752 149.8466 345° North 467 537 36,300  Climbing Aus ATC (RADAR)
04:41PM -30.4190 149.8550 345° North 479 551 36,000 -360 Descending FlightAware
04:41PM -30.3460 149.8340 346° North 479 551 36,000  Level FlightAware
04:42PM -30.2550 149.8080 346° North 479 551 36,000 180 Level FlightAware
04:43PM -30.1034 149.7849 346° North 464 534 36,300  Climbing Aus ATC (RADAR)
04:43PM -30.1820 149.7870 346° North 479 551 36,000 -360 Descending FlightAware
04:44PM -30.1080 149.7660 346° North 479 551 36,000  Level FlightAware
04:44PM -30.0350 149.7450 346° North 479 551 36,000 240 Level FlightAware
04:45PM -29.8483 149.7297 346° North 454 522 36,300  Climbing Aus ATC (RADAR)
04:45PM -29.9620 149.7230 346° North 479 551 36,000 -360 Descending FlightAware
04:46PM -29.8890 149.7020 346° North 479 551 36,000 300 Level FlightAware
04:46PM -29.7064 149.7001 346° North 458 527 36,300  Climbing Aus ATC (RADAR)
04:46PM -29.7980 149.6760 346° North 479 551 36,000  Descending FlightAware
04:47PM -29.5830 149.6730 346° North 452 520 36,300  Climbing Aus ATC (RADAR)
04:47PM -29.7250 149.6550 346° North 479 551 36,000 -360 Descending FlightAware
04:48PM -29.6510 149.6340 346° North 479 551 36,000 120 Level FlightAware
04:49PM -29.3188 149.6175 346° North 453 521 36,300 120 Climbing Aus ATC (RADAR)
04:50PM -29.1943 149.5911 350° North 453 521 36,300  Level Aus ATC (RADAR)
04:51PM -29.0599 149.5624 349° North 452 520 36,300 -180 Level Aus ATC (RADAR)
04:52PM -28.9294 149.5361 350° North 455 524 36,000  Descending Aus ATC (RADAR)
04:54PM -28.6984 149.4869 349° North 449 517 36,300 60 Climbing Aus ATC (RADAR)
04:55PM -28.5654 149.4592 350° North 445 512 36,200 -60 Descending Aus ATC (RADAR)
04:57PM -28.3763 149.4190 349° North 447 514 36,200  Level Aus ATC (RADAR)
04:58PM -28.2502 149.3938 350° North 444 511 36,200  Level Aus ATC (RADAR)
04:59PM -28.0641 149.3387 345° North 447 514 36,300  Climbing Aus ATC (RADAR)
05:00PM -27.9485 149.2867 338° Northwest 437 503 36,200 -60 Descending Aus ATC (RADAR)
05:01PM -27.8716 149.2586 342° North 436 502 36,200 60 Level Aus ATC (RADAR)
05:02PM -27.7780 149.2265 343° North 436 502 36,300  Climbing Aus ATC (RADAR)
05:03PM -27.6791 149.1889 341° North 431 496 36,200 -120 Descending Aus ATC (RADAR)
05:03PM -27.6126 149.1649 342° North 429 494 36,200  Level Aus ATC (RADAR)
05:04PM -27.5086 149.1271 342° North 428 493 36,200  Level Aus ATC (RADAR)
05:04PM -27.4807 149.1170 342° North 424 488 36,200  Level Aus ATC (RADAR)
05:06PM -27.2829 149.0456 342° North 426 490 36,200  Level Aus ATC (RADAR)
05:07PM -27.2165 149.0219 342° North 428 493 36,200  Level Aus ATC (RADAR)
05:07PM -27.1882 149.0116 342° North 427 491 36,200  Level Aus ATC (RADAR)
05:08PM -27.1219 148.9879 342° North 428 493 36,200 60 Level Aus ATC (RADAR)
05:08PM -27.0169 148.9500 342° North 430 495 36,300 60 Climbing Aus ATC (RADAR)
05:09PM -26.9497 148.9261 342° North 433 498 36,300 -120 Level Aus ATC (RADAR)
05:10PM -26.8452 148.8888 342° North 432 497 36,200 -120 Descending Aus ATC (RADAR)
05:11PM -26.7418 148.8519 342° North 425 489 36,100 -60 Descending Aus ATC (RADAR)
05:12PM -26.6574 148.8216 342° North 424 488 36,100  Level Aus ATC (RADAR)
05:12PM -26.5925 148.7980 342° North 420 483 36,100  Level Aus ATC (RADAR)
05:13PM -26.4921 148.7643 343° North 415 478 36,100  Level Aus ATC (RADAR)
05:14PM -26.4256 148.7451 345° North 421 484 36,100  Level Aus ATC (RADAR)
05:15PM -26.3227 148.7162 346° North 416 479 36,100  Level Aus ATC (RADAR)
05:16PM -26.1057 148.6534 345° North 419 482 36,100  Level Aus ATC (RADAR)
05:17PM -26.0297 148.6311 345° North 423 487 36,100 60 Level Aus ATC (RADAR)
05:17PM -26.0018 148.6228 345° North 420 483 36,200  Climbing Aus ATC (RADAR)
05:18PM -25.9362 148.6037 345° North 418 481 36,100 -120 Descending Aus ATC (RADAR)
05:19PM -25.8324 148.5735 345° North 420 483 36,100 -120 Level Aus ATC (RADAR)
05:19PM -25.8060 148.5660 345° North 36,000 -180 Descending FlightAware
05:19PM -25.7940 148.5630 347° North 413 475 36,000 540 Level FlightAware
05:19PM -25.7676 148.5545 345° North 414 476 36,100  Climbing Aus ATC (RADAR)
05:20PM -25.7180 148.5400 345° North 413 475 36,000  Descending FlightAware
05:21PM -25.6309 148.5152 345° North 402 463 36,100 120 Climbing Aus ATC (RADAR)
05:21PM -25.6032 148.5074 346° North 406 467 36,100 -240 Level Aus ATC (RADAR)
05:21PM -25.6120 148.5090 346° North 412 474 36,000  Descending FlightAware
05:22PM -25.5121 148.4807 346° North 406 467 36,100  Climbing Aus ATC (RADAR)
05:22PM -25.5380 148.4890 346° North 407 468 36,000 -180 Descending FlightAware
05:23PM -25.4550 148.4640 345° North 408 470 36,000  Level FlightAware
05:23PM -25.3820 148.4430 345° North 408 470 36,000 60 Level FlightAware
05:24PM -25.3199 148.4253 345° North 409 471 36,100  Climbing Aus ATC (RADAR)
05:24PM -25.2960 148.4190 345° North 415 478 36,000  Descending FlightAware
05:25PM -25.2210 148.3970 345° North 415 478 36,100 60 Climbing FlightAware
05:25PM -25.1521 148.3771 345° North 413 475 36,100  Level Aus ATC (RADAR)
05:25PM -25.1400 148.3740 345° North 416 479 36,100  Level FlightAware
05:26PM -25.0620 148.3510 345° North 416 479 36,100 60 Level FlightAware
05:26PM -25.0027 148.3349 345° North 415 478 36,200 120 Climbing Aus ATC (RADAR)
05:27PM -24.9748 148.3270 346° North 415 478 36,200 -300 Level Aus ATC (RADAR)
05:27PM -24.9860 148.3300 346° North 416 479 36,100 -180 Descending FlightAware
05:27PM -24.9096 148.3081 346° North 414 476 36,100  Level Aus ATC (RADAR)
05:27PM -24.9050 148.3070 346° North 410 472 36,100 -120 Level FlightAware
05:28PM -24.8280 148.2850 345° North 407 468 36,000 -120 Descending FlightAware
05:29PM -24.7560 148.2640 345° North 406 467 36,000 120 Level FlightAware
05:29PM -24.7276 148.2563 345° North 404 465 36,100  Climbing Aus ATC (RADAR)
05:29PM -24.6840 148.2430 345° North 405 466 36,000  Descending FlightAware
05:30PM -24.6277 148.2276 345° North 407 468 36,100  Climbing Aus ATC (RADAR)
05:30PM -24.5950 148.2180 345° North 407 468 36,000 -120 Descending FlightAware
05:31PM -24.5250 148.1980 345° North 409 471 36,000 60 Level FlightAware
05:32PM -24.4262 148.1705 345° North 410 472 36,100  Climbing Aus ATC (RADAR)
05:32PM -24.4410 148.1740 345° North 411 473 36,000  Descending FlightAware
05:32PM -24.3720 148.1550 346° North 411 473 36,100 120 Climbing FlightAware
05:33PM -24.3247 148.1418 346° North 412 474 36,100  Level Aus ATC (RADAR)
05:33PM -24.3020 148.1350 346° North 410 472 36,100  Level FlightAware
05:34PM -24.1966 148.1058 346° North 406 467 36,100 -120 Level Aus ATC (RADAR)
05:34PM -24.2110 148.1090 346° North 409 471 36,000  Descending FlightAware
05:34PM -24.1322 148.0874 346° North 408 470 36,100  Climbing Aus ATC (RADAR)
05:34PM -24.1390 148.0890 346° North 408 470 36,000  Descending FlightAware
05:35PM -24.0401 148.0613 346° North 411 473 36,100  Climbing Aus ATC (RADAR)
05:35PM -24.0600 148.0660 346° North 411 473 36,000 -120 Descending FlightAware
05:36PM -23.9710 148.0410 346° North 412 474 36,000 60 Level FlightAware
05:36PM -23.9110 148.0252 346° North 412 474 36,100 180 Climbing Aus ATC (RADAR)
05:36PM -23.9100 148.0240 346° North 411 473 36,100  Level FlightAware
05:37PM -23.8466 148.0070 346° North 410 472 36,100  Level Aus ATC (RADAR)
05:37PM -23.8191 147.9993 346° North 409 471 36,100 -240 Level Aus ATC (RADAR)
05:37PM -23.8270 148.0010 346° North 410 472 36,000  Descending FlightAware
05:38PM -23.7548 147.9813 346° North 409 471 36,100  Climbing Aus ATC (RADAR)
05:38PM -23.7320 147.9740 346° North 408 470 36,000 -120 Descending FlightAware
05:39PM -23.6546 147.9529 346° North 405 466 36,000  Level Aus ATC (RADAR)
05:39PM -23.6670 147.9560 346° North 408 470 36,000 120 Level FlightAware
05:39PM -23.5899 147.9355 346° North 410 472 36,100  Climbing Aus ATC (RADAR)
05:39PM -23.6120 147.9410 346° North 409 471 36,000 -120 Descending FlightAware
05:40PM -23.5120 147.9130 346° North 412 474 36,000 60 Level FlightAware
05:40PM -23.4512 147.8961 346° North 415 478 36,100  Climbing Aus ATC (RADAR)
05:41PM -23.4360 147.8920 346° North 416 479 36,000 -120 Descending FlightAware
05:41PM -23.3720 147.8740 346° North 420 483 36,000  Level FlightAware
05:42PM -23.2916 147.8517 346° North 419 482 36,000  Level Aus ATC (RADAR)
05:42PM -23.2870 147.8500 346° North 422 486 36,000  Level FlightAware
05:42PM -23.2252 147.8335 346° North 421 484 36,000 120 Level Aus ATC (RADAR)
05:43PM -23.1920 147.8240 346° North 423 487 36,100  Climbing FlightAware
05:43PM -23.1116 147.8019 346° North 422 486 36,000 -180 Descending Aus ATC (RADAR)
05:44PM -23.1110 147.8010 346° North 423 487 36,000  Level FlightAware
05:44PM -23.0451 147.7835 346° North 423 487 36,000  Level Aus ATC (RADAR)
05:44PM -23.0500 147.7840 346° North 424 488 36,000 60 Level FlightAware
05:45PM -22.9420 147.7540 346° North 423 487 36,100  Climbing FlightAware
05:46PM -22.8551 147.7309 346° North 422 486 36,000 -180 Descending Aus ATC (RADAR)
05:46PM -22.8670 147.7340 346° North 422 486 36,000  Level FlightAware
05:46PM -22.8110 147.7180 345° North 421 484 36,000  Level FlightAware
05:47PM -22.7035 147.6889 345° North 421 484 36,000  Level Aus ATC (RADAR)
05:47PM -22.7190 147.6920 345° North 422 486 36,000  Level FlightAware
05:48PM -22.6420 147.6710 346° North 423 487 36,000  Level FlightAware
05:48PM -22.5610 147.6490 346° North 422 486 36,000  Level FlightAware
05:49PM -22.4951 147.6316 346° North 420 483 36,000  Level Aus ATC (RADAR)
05:49PM -22.4740 147.6250 346° North 420 483 36,000  Level FlightAware
05:50PM -22.4040 147.6010 342° North 412 474 36,000  Level FlightAware
05:50PM -22.3227 147.5689 342° North 412 474 36,000  Level Aus ATC (RADAR)
05:51PM -22.3300 147.5710 342° North 411 473 36,000  Level FlightAware
05:51PM -22.2720 147.5480 340° North 410 472 36,000  Level FlightAware
05:52PM -22.2073 147.5241 340° North 404 465 36,000  Level Aus ATC (RADAR)
05:52PM -22.1940 147.5180 340° North 407 468 36,000  Level FlightAware
05:52PM -22.1186 147.4892 340° North 406 467 36,000  Level Aus ATC (RADAR)
05:53PM -22.1210 147.4890 340° North 404 465 36,000  Level FlightAware
05:53PM -22.0573 147.4651 340° North 405 466 36,000  Level Aus ATC (RADAR)
05:53PM -22.0350 147.4550 340° North 404 465 36,000  Level FlightAware
05:54PM -21.9608 147.4272 340° North 400 460 36,000  Level Aus ATC (RADAR)
05:54PM -21.9600 147.4260 340° North 405 466 36,000  Level FlightAware
05:54PM -21.8990 147.4028 340° North 403 464 36,000  Level Aus ATC (RADAR)
05:55PM -21.8920 147.3990 340° North 406 467 36,000 60 Level FlightAware
05:55PM -21.7926 147.3618 340° North 403 464 36,100  Climbing Aus ATC (RADAR)
05:55PM -21.8090 147.3670 340° North 407 468 36,000 -180 Descending FlightAware
05:56PM -21.7360 147.3390 340° North 406 467 36,000 60 Level FlightAware
05:57PM -21.6342 147.2999 340° North 402 463 36,100  Climbing Aus ATC (RADAR)
05:57PM -21.6410 147.3020 340° North 399 459 36,000  Descending FlightAware
05:58PM -21.5479 147.2661 340° North 393 452 36,100  Climbing Aus ATC (RADAR)
05:58PM -21.5530 147.2670 340° North 397 457 36,000 -180 Descending FlightAware
05:58PM -21.4950 147.2450 341° North 398 458 36,000 60 Level FlightAware
05:59PM -21.4437 147.2256 341° North 399 459 36,100  Climbing Aus ATC (RADAR)
05:59PM -21.4060 147.2100 341° North 398 458 36,000 -120 Descending FlightAware
06:00PM -21.3450 147.1860 340° North 401 461 36,000 60 Level FlightAware
06:00PM -21.2871 147.1647 340° North 399 459 36,100  Climbing Aus ATC (RADAR)
06:01PM -21.2480 147.1490 340° North 403 464 36,000 -120 Descending FlightAware
06:02PM -21.1770 147.1210 340° North 404 465 36,000  Level FlightAware
06:02PM -21.1030 147.0930 341° North 404 465 36,000 60 Level FlightAware
06:03PM -21.0489 147.0729 341° North 406 467 36,100  Climbing Aus ATC (RADAR)
06:03PM -21.0390 147.0680 341° North 407 468 36,000  Descending FlightAware
06:03PM -21.0222 147.0626 341° North 407 468 36,100  Climbing Aus ATC (RADAR)
06:04PM -20.9867 147.0489 340° North 408 470 36,000  Descending Aus ATC (RADAR)
06:04PM -20.8530 146.9970 340° North 396 456 36,100  Climbing FlightAware
06:05PM -20.8719 147.0047 340° North 402 463 36,000 -120 Descending Aus ATC (RADAR)
06:05PM -20.7752 146.9676 340° North 403 464 36,000  Level Aus ATC (RADAR)
06:06PM -20.7310 146.9490 340° North 393 452 36,000  Level FlightAware
06:07PM -20.6060 146.9020 341° North 391 450 36,000  Level FlightAware
06:07PM -20.5749 146.8907 341° North 398 458 36,000  Level Aus ATC (RADAR)
06:08PM -20.4870 146.8560 341° North 393 452 36,000  Level FlightAware
06:09PM -20.4091 146.8275 341° North 402 463 36,000  Level Aus ATC (RADAR)
06:10PM -20.3190 146.7920 341° North 396 456 36,000  Level FlightAware
06:10PM -20.2511 146.7666 341° North 403 464 36,000  Level Aus ATC (RADAR)
06:10PM -20.2460 146.7640 341° North 397 457 36,000  Level FlightAware
06:11PM -20.1770 146.7380 341° North 397 457 36,000  Level FlightAware
06:12PM -20.0510 146.6890 340° North 409 471 36,000  Level FlightAware
06:13PM -19.9870 146.6650 341° North 410 472 36,000  Level FlightAware
06:13PM -19.9406 146.6476 341° North 408 470 36,000  Level Aus ATC (RADAR)
06:13PM -19.8970 146.6310 341° North 410 472 36,000  Level FlightAware
06:14PM -19.8010 146.5940 340° North 409 471 36,000  Level FlightAware
06:15PM -19.7623 146.5797 340° North 408 470 36,000  Level Aus ATC (RADAR)
06:15PM -19.7290 146.5670 340° North 407 468 36,000  Level FlightAware
06:16PM -19.6500 146.5370 340° North 398 458 36,000  Level FlightAware
06:16PM -19.6118 146.5227 340° North 406 467 36,000  Level Aus ATC (RADAR)
06:17PM -19.5270 146.4910 340° North 397 457 36,000  Level FlightAware
06:18PM -19.4530 146.4615 340° North 409 471 36,000  Level Aus ATC (RADAR)
06:18PM -19.4020 146.4430 340° North 407 468 36,000  Level FlightAware
06:19PM -19.2790 146.3970 341° North 409 471 36,000  Level FlightAware
06:20PM -19.2140 146.3730 341° North 409 471 36,000  Level FlightAware
06:20PM -19.1936 146.3642 341° North 407 468 36,000  Level Aus ATC (RADAR)
06:21PM -19.1240 146.3390 340° North 411 473 36,000  Level FlightAware
06:21PM -19.0854 146.3249 340° North 409 471 36,000  Level Aus ATC (RADAR)
06:22PM -19.0280 146.3030 340° North 411 473 36,000  Level FlightAware
06:22PM -18.9602 146.2765 340° North 411 473 36,000  Level Aus ATC (RADAR)
06:22PM -18.9520 146.2740 340° North 413 475 36,000  Level FlightAware
06:23PM -18.8974 146.2520 340° North 413 475 36,000  Level Aus ATC (RADAR)
06:23PM -18.8704 146.2415 340° North 413 475 36,000  Level Aus ATC (RADAR)
06:23PM -18.8720 146.2440 340° North 414 476 36,000  Level FlightAware
06:24PM -18.8065 146.2199 340° North 408 470 36,000  Level Aus ATC (RADAR)
06:24PM -18.7450 146.1970 340° North 407 468 36,000  Level FlightAware
06:24PM -18.7071 146.1811 340° North 413 475 36,000  Level Aus ATC (RADAR)
06:25PM -18.6439 146.1585 341° North 412 474 36,000  Level Aus ATC (RADAR)
06:25PM -18.6190 146.1500 341° North 414 476 36,000  Level FlightAware
06:26PM -18.5451 146.1203 341° North 409 471 36,000  Level Aus ATC (RADAR)
06:27PM -18.4920 146.1020 341° North 414 476 36,000  Level FlightAware
06:27PM -18.4366 146.0792 341° North 414 476 36,000  Level Aus ATC (RADAR)
06:27PM -18.4280 146.0780 341° North 407 468 36,000  Level FlightAware
06:28PM -18.3729 146.0569 341° North 409 471 36,000 -180 Level Aus ATC (RADAR)
06:28PM -18.3460 146.0464 340° North 408 470 35,900  Descending Aus ATC (RADAR)
06:28PM -18.3360 146.0440 340° North 412 474 36,000 -180 Climbing FlightAware
06:28PM -18.2828 146.0228 340° North 410 472 35,800 -1,560 Descending Aus ATC (RADAR)
06:29PM -18.2390 146.0080 340° North 426 490 34,600 -2,520 Descending FlightAware
06:29PM -18.1816 145.9859 340° North 413 475 33,500 -2,880 Descending Aus ATC (RADAR)
06:30PM -18.1620 145.9790 340° North 425 489 32,700 -3,300 Descending FlightAware
06:30PM -18.1164 145.9613 340° North 419 482 31,600 -2,400 Descending Aus ATC (RADAR)
06:30PM -18.0790 145.9490 340° North 423 487 30,900 -2,340 Descending FlightAware
06:31PM -18.0058 145.9201 340° North 419 482 29,300 -2,280 Descending Aus ATC (RADAR)
06:31PM -18.0050 145.9210 340° North 409 471 29,400 -1,920 Climbing FlightAware
06:32PM -17.9330 145.8940 340° North 410 472 27,900 -2,220 Descending FlightAware
06:32PM -17.8510 145.8640 341° North 395 455 26,300 -2,340 Descending FlightAware
06:33PM -17.8097 145.8482 341° North 399 459 25,400 -2,100 Descending Aus ATC (RADAR)
06:33PM -17.7840 145.8390 341° North 396 456 24,900 -2,100 Descending FlightAware
06:33PM -17.7406 145.8227 341° North 389 448 24,000 -2,100 Descending Aus ATC (RADAR)
06:34PM -17.7230 145.8160 341° North 390 449 23,700 -1,800 Descending FlightAware
06:34PM -17.6560 145.7880 338° Northwest 379 436 22,400 -2,160 Descending FlightAware
06:35PM -17.5795 145.7485 338° Northwest 371 427 20,700 -2,040 Descending Aus ATC (RADAR)
06:35PM -17.5870 145.7520 338° Northwest 364 419 20,900 -1,500 Climbing FlightAware
06:36PM -17.5250 145.7210 335° Northwest 356 410 19,700 -2,040 Descending FlightAware
06:36PM -17.4882 145.7020 335° Northwest 356 410 18,900 -2,040 Descending Aus ATC (RADAR)
06:36PM -17.4530 145.6840 335° Northwest 353 406 18,200 -1,800 Descending FlightAware
06:37PM -17.4073 145.6609 335° Northwest 350 403 17,300 -1,680 Descending Aus ATC (RADAR)
06:37PM -17.3960 145.6550 335° Northwest 345 397 17,100 -1,920 Descending FlightAware
06:38PM -17.3575 145.6355 335° Northwest 337 388 16,200 -2,040 Descending Aus ATC (RADAR)
06:38PM -17.3362 145.6246 334° Northwest 335 386 15,800 -1,140 Descending Aus ATC (RADAR)
06:38PM -17.3400 145.6260 334° Northwest 339 390 15,900 -1,740 Climbing FlightAware
06:38PM -17.2868 145.5999 334° Northwest 333 383 14,800 -1,740 Descending Aus ATC (RADAR)
06:39PM -17.2740 145.5930 334° Northwest 332 382 14,600 -1,560 Descending FlightAware
06:39PM -17.2220 145.5660 334° Northwest 326 375 13,500 -1,800 Descending FlightAware
06:40PM -17.1631 145.5364 334° Northwest 329 379 12,300 -1,620 Descending Aus ATC (RADAR)
06:40PM -17.1580 145.5340 334° Northwest 342 394 12,300 -1,620 Level FlightAware
06:41PM -17.1000 145.5050 334° Northwest 334 384 11,100 -1,440 Descending FlightAware
06:41PM -17.0480 145.4790 334° Northwest 310 357 10,400 -900 Descending FlightAware
06:42PM -16.9920 145.4500 334° Northwest 281 323 9,900 -960 Descending FlightAware
06:42PM -16.9614 145.4338 334° Northwest 279 321 9,300 -1,200 Descending Aus ATC (RADAR)
06:42PM -16.9670 145.4370 334° Northwest 276 318 9,400 -1,020 Climbing FlightAware
06:43PM -16.9290 145.4190 336° Northwest 275 316 8,800 -1,080 Descending FlightAware
06:43PM -16.9180 145.4170 350° North 279 321 8,700 -1,020 Descending FlightAware
06:43PM -16.8950 145.4230 14° North 279 321 8,300 -1,200 Descending FlightAware
06:44PM -16.8640 145.4420 30° Northeast 274 315 7,800 -1,200 Descending FlightAware
06:44PM -16.8310 145.4610 29° Northeast 265 305 7,200 -1,200 Descending FlightAware
06:45PM -16.8030 145.4760 27° Northeast 259 298 6,700 -1,200 Descending FlightAware
06:45PM -16.7870 145.4850 28° Northeast 256 295 6,400 -1,080 Descending FlightAware
06:46PM -16.7560 145.5020 28° Northeast 249 287 5,900 -1,140 Descending FlightAware
06:46PM -16.7330 145.5160 30° Northeast 242 278 5,400 -1,140 Descending FlightAware
06:46PM -16.7065 145.5308 30° Northeast 244 281 5,000 -1,020 Descending Aus ATC (RADAR)
06:46PM -16.7010 145.5340 30° Northeast 250 288 4,900 -960 Descending FlightAware
06:47PM -16.6820 145.5510 41° Northeast 247 284 4,500 -780 Descending FlightAware
06:47PM -16.6560 145.5790 46° Northeast 247 284 4,200 -300 Descending FlightAware
06:48PM -16.6370 145.6050 53° Northeast 220 253 4,200  Level FlightAware
06:48PM -16.6320 145.6180 68° East 215 247 4,200  Level FlightAware
06:49PM -16.6430 145.6400 118° Southeast 223 257 4,200  Level FlightAware
06:49PM -16.6600 145.6500 151° Southeast 229 264 4,200 -600 Level FlightAware
06:49PM -16.6930 145.6660 155° Southeast 221 254 3,700 -1,200 Descending FlightAware
06:50PM -16.7222 145.6785 155° Southeast 222 255 3,000 -1,440 Descending Aus ATC (RADAR)
06:50PM -16.7220 145.6790 155° Southeast 222 255 3,000 -840 Level FlightAware
06:50PM -16.7390 145.6860 158° South 220 253 2,700 -1,080 Descending FlightAware
06:51PM -16.7600 145.6960 155° Southeast 209 241 2,300 -480 Descending FlightAware
06:51PM -16.7830 145.7070 155° Southeast 206 237 2,300 -960 Level FlightAware
06:53PM -16.8436 145.7337 155° Southeast 141 162 500 -1,260 Descending Aus ATC (RADAR)
06:53PM -16.8525 145.7377 156° South 140 161 300 -840 Descending Aus ATC (RADAR)
06:55PM -16.8860 145.7553 163° South  Level FlightAware Approximate
07:02PM -16.8858 145.7553 163° South  Level Estimated
07:03PM -16.8858 145.7553 163° South  Level Estimated
07:04PM -16.8858 145.7553 163° South  Level Estimated